createdAt,value
2022-08-17T00:00:42.861Z,99978.97
2022-08-17T00:03:02.981Z,99972.53
2022-08-17T00:05:36.540Z,99972.09
2022-08-17T00:08:05.443Z,99970.25
2022-08-17T00:10:33.194Z,99970.09
2022-08-17T00:13:06.170Z,99978.56
2022-08-17T00:15:34.364Z,99978.00
2022-08-17T00:18:02.076Z,99979.00
2022-08-17T00:20:32.146Z,99983.78
2022-08-17T00:23:12.798Z,99974.94
2022-08-17T00:25:41.854Z,99975.12
2022-08-17T00:28:09.870Z,99976.00
2022-08-17T00:30:52.994Z,99980.56
2022-08-17T00:33:26.337Z,99982.62
2022-08-17T00:35:55.500Z,99980.78
2022-08-17T00:38:25.120Z,99988.22
2022-08-17T00:41:02.161Z,99990.75
2022-08-17T00:43:38.720Z,99988.50
2022-08-17T00:46:10.079Z,99988.69
2022-08-17T00:48:38.346Z,100000.06
2022-08-17T00:51:12.090Z,100003.19
2022-08-17T00:53:44.632Z,100007.53
2022-08-17T00:56:16.780Z,100009.41
2022-08-17T00:58:44.876Z,99999.16
2022-08-17T01:01:21.543Z,100000.37
2022-08-17T01:03:53.402Z,100003.63
2022-08-17T01:06:25.657Z,100000.31
2022-08-17T01:08:57.622Z,99993.75
2022-08-17T01:11:26.873Z,100003.28
2022-08-17T01:13:54.639Z,99997.31
2022-08-17T01:16:28.518Z,99998.94
2022-08-17T01:19:11.117Z,99993.59
2022-08-17T01:22:06.501Z,99990.75
2022-08-17T01:24:37.110Z,99988.28
2022-08-17T01:27:10.119Z,99997.97
2022-08-17T01:29:40.941Z,99998.78
2022-08-17T01:32:08.722Z,100002.06
2022-08-17T01:34:42.953Z,99995.88
2022-08-17T01:37:20.005Z,99995.28
2022-08-17T01:40:09.292Z,99999.22
2022-08-17T01:42:58.935Z,100002.53
2022-08-17T01:45:30.437Z,99981.41
2022-08-17T01:47:58.582Z,99986.31
2022-08-17T01:50:34.921Z,99991.03
2022-08-17T01:53:06.496Z,99994.75
2022-08-17T01:55:40.398Z,99996.19
2022-08-17T01:58:09.855Z,99992.34
2022-08-17T02:00:59.418Z,99990.28
2022-08-17T02:03:27.633Z,99995.22
2022-08-17T02:05:55.341Z,99988.25
2022-08-17T02:08:39.164Z,99990.91
2022-08-17T02:11:16.893Z,99982.91
2022-08-17T02:13:46.333Z,99990.28
2022-08-17T02:16:14.623Z,99990.28
2022-08-17T02:18:42.302Z,99988.28
2022-08-17T02:21:10.406Z,99980.25
2022-08-17T02:23:41.673Z,99988.88
2022-08-17T02:26:09.815Z,99983.94
2022-08-17T02:28:53.733Z,99987.44
2022-08-17T02:31:21.351Z,99985.22
2022-08-17T02:34:00.411Z,99986.25
2022-08-17T02:36:34.556Z,99994.28
2022-08-17T02:39:04.633Z,99985.25
2022-08-17T02:41:33.005Z,99985.91
2022-08-17T02:44:01.112Z,99988.81
2022-08-17T02:46:30.468Z,99978.31
2022-08-17T02:48:59.140Z,99985.13
2022-08-17T02:51:27.235Z,99989.50
2022-08-17T02:54:38.941Z,99991.97
2022-08-17T02:56:43.009Z,99990.75
2022-08-17T02:59:10.517Z,99986.44
2022-08-17T03:01:38.151Z,99988.09
2022-08-17T03:04:06.351Z,99978.44
2022-08-17T03:06:33.982Z,99984.59
2022-08-17T03:09:01.789Z,99985.19
2022-08-17T03:11:29.840Z,99977.81
2022-08-17T03:13:58.506Z,99984.41
2022-08-17T03:16:25.960Z,99973.72
2022-08-17T03:18:55.035Z,99980.72
2022-08-17T03:21:22.532Z,99982.34
2022-08-17T03:23:49.956Z,99981.75
2022-08-17T03:26:22.448Z,99989.75
2022-08-17T03:28:50.432Z,99993.69
2022-08-17T03:31:18.439Z,99993.09
2022-08-17T03:33:46.169Z,99992.28
2022-08-17T03:36:13.823Z,99997.62
2022-08-17T03:38:41.633Z,99997.19
2022-08-17T03:41:09.373Z,100000.09
2022-08-17T03:43:36.849Z,100000.50
2022-08-17T03:46:33.971Z,100003.37
2022-08-17T03:49:27.312Z,100002.13
2022-08-17T03:52:15.229Z,100006.66
2022-08-17T03:55:03.197Z,100008.53
2022-08-17T03:57:31.445Z,100019.41
2022-08-17T04:00:00.151Z,100016.53
2022-08-17T04:02:31.505Z,100019.41
2022-08-17T04:04:59.972Z,100015.91
2022-08-17T04:07:30.245Z,100016.72
2022-08-17T04:10:01.074Z,100018.16
2022-08-17T04:12:30.952Z,100024.94
2022-08-17T04:14:59.183Z,100025.66
2022-08-17T04:17:28.652Z,100032.16
2022-08-17T04:20:08.584Z,100037.50
2022-08-17T04:22:36.113Z,100034.16
2022-08-17T04:25:24.612Z,100032.28
2022-08-17T04:27:52.309Z,100039.06
2022-08-17T04:30:21.313Z,100046.03
2022-08-17T04:33:06.230Z,100042.94
2022-08-17T04:35:41.175Z,100042.97
2022-08-17T04:38:12.045Z,100047.25
2022-08-17T04:40:58.731Z,100049.31
2022-08-17T04:43:31.079Z,100059.16
2022-08-17T04:46:04.835Z,100054.97
2022-08-17T04:48:37.392Z,100055.72
2022-08-17T04:51:13.200Z,100055.28
2022-08-17T04:53:43.021Z,100056.72
2022-08-17T04:56:16.648Z,100052.72
2022-08-17T04:58:48.301Z,100059.66
2022-08-17T05:01:24.025Z,100061.50
2022-08-17T05:03:53.853Z,100066.38
2022-08-17T05:06:22.095Z,100062.84
2022-08-17T05:08:49.670Z,100068.53
2022-08-17T05:11:17.996Z,100067.00
2022-08-17T05:13:46.067Z,100067.22
2022-08-17T05:16:13.617Z,100069.59
2022-08-17T05:18:41.162Z,100073.00
2022-08-17T05:21:09.001Z,100072.62
2022-08-17T05:23:41.799Z,100070.91
2022-08-17T05:26:25.423Z,100077.50
2022-08-17T05:28:57.234Z,100085.38
2022-08-17T05:31:29.382Z,100074.81
2022-08-17T05:33:56.999Z,100078.72
2022-08-17T05:36:43.022Z,100085.03
2022-08-17T05:39:15.779Z,100084.28
2022-08-17T05:41:48.165Z,100100.16
2022-08-17T05:44:16.581Z,100099.78
2022-08-17T05:46:50.045Z,100093.06
2022-08-17T05:49:28.155Z,100098.97
2022-08-17T05:52:10.713Z,100092.69
2022-08-17T05:54:47.355Z,100099.00
2022-08-17T05:57:59.844Z,100099.88
2022-08-17T06:00:37.183Z,100108.22
2022-08-17T06:03:29.255Z,100103.06
2022-08-17T06:06:31.755Z,100106.66
2022-08-17T06:09:11.496Z,100105.50
2022-08-17T06:11:47.364Z,100103.56
2022-08-17T06:14:27.513Z,100097.75
2022-08-17T06:17:00.941Z,100103.59
2022-08-17T06:19:45.998Z,100099.44
2022-08-17T06:22:16.779Z,100099.62
2022-08-17T06:24:54.100Z,100101.03
2022-08-17T06:27:40.268Z,100113.75
2022-08-17T06:30:17.702Z,100103.34
2022-08-17T06:32:48.133Z,100107.56
2022-08-17T06:35:22.059Z,100109.44
2022-08-17T06:38:37.046Z,100116.97
2022-08-17T06:41:15.557Z,100117.03
2022-08-17T06:43:48.920Z,100124.69
2022-08-17T06:46:21.913Z,100113.44
2022-08-17T06:49:09.627Z,100120.97
2022-08-17T06:51:50.616Z,100121.41
2022-08-17T06:54:27.274Z,100117.06
2022-08-17T06:57:10.020Z,100114.47
2022-08-17T06:59:55.362Z,100122.16
2022-08-17T07:03:02.552Z,100115.63
2022-08-17T07:05:33.289Z,100118.66
2022-08-17T07:08:17.019Z,100121.78
2022-08-17T07:10:54.805Z,100120.03
2022-08-17T07:13:31.606Z,100123.66
2022-08-17T07:16:24.100Z,100124.59
2022-08-17T07:18:54.777Z,100129.69
2022-08-17T07:21:38.516Z,100128.25
2022-08-17T07:24:39.355Z,100127.75
2022-08-17T07:27:09.376Z,100133.62
2022-08-17T07:29:46.965Z,100143.66
2022-08-17T07:32:18.655Z,100139.66
2022-08-17T07:35:21.156Z,100142.00
2022-08-17T07:38:25.626Z,100138.66
2022-08-17T07:40:57.908Z,100140.47
2022-08-17T07:43:34.799Z,100137.97
2022-08-17T07:46:41.912Z,100139.34
2022-08-17T07:49:09.347Z,100135.56
2022-08-17T07:52:00.011Z,100149.78
2022-08-17T07:54:46.614Z,100131.22
2022-08-17T07:57:14.337Z,100142.34
2022-08-17T08:00:01.559Z,100143.50
2022-08-17T08:02:38.232Z,100146.69
2022-08-17T08:05:48.691Z,100147.00
2022-08-17T08:08:21.413Z,100154.25
2022-08-17T08:11:09.024Z,100144.66
2022-08-17T08:13:43.820Z,100133.41
2022-08-17T08:16:27.094Z,100143.44
2022-08-17T08:19:00.622Z,100139.88
2022-08-17T08:21:55.234Z,100148.09
2022-08-17T08:24:44.442Z,100150.88
2022-08-17T08:27:50.356Z,100150.62
2022-08-17T08:30:21.427Z,100148.97
2022-08-17T08:33:04.153Z,100150.06
2022-08-17T08:35:48.070Z,100144.91
2022-08-17T08:38:25.474Z,100150.28
2022-08-17T08:41:29.725Z,100150.88
2022-08-17T08:44:06.472Z,100146.78
2022-08-17T08:46:44.220Z,100148.13
2022-08-17T08:49:12.589Z,100150.59
2022-08-17T08:52:14.101Z,100144.28
2022-08-17T08:55:13.761Z,100142.63
2022-08-17T08:57:54.046Z,100147.00
2022-08-17T09:00:26.297Z,100152.72
2022-08-17T09:03:20.050Z,100147.56
2022-08-17T09:06:32.044Z,100139.31
2022-08-17T09:09:27.302Z,100139.69
2022-08-17T09:12:02.202Z,100140.44
2022-08-17T09:15:01.251Z,100135.37
2022-08-17T09:17:38.841Z,100131.09
2022-08-17T09:20:27.623Z,100144.06
2022-08-17T09:23:09.231Z,100141.19
2022-08-17T09:25:54.238Z,100146.59
2022-08-17T09:28:32.637Z,100133.69
2022-08-17T09:31:07.741Z,100139.38
2022-08-17T09:33:43.026Z,100134.69
2022-08-17T09:36:23.801Z,100131.75
2022-08-17T09:38:58.300Z,100128.44
2022-08-17T09:41:39.181Z,100137.94
2022-08-17T09:44:23.940Z,100134.88
2022-08-17T09:47:13.945Z,100133.41
2022-08-17T09:49:50.340Z,100136.00
2022-08-17T09:52:22.688Z,100136.25
2022-08-17T09:54:53.347Z,100137.22
2022-08-17T09:57:32.330Z,100125.50
2022-08-17T10:00:16.438Z,100129.38
2022-08-17T10:03:00.475Z,100129.84
2022-08-17T10:05:46.492Z,100116.72
2022-08-17T10:08:35.098Z,100129.94
2022-08-17T10:11:08.620Z,100131.81
2022-08-17T10:14:36.064Z,100130.47
2022-08-17T10:17:00.809Z,100123.50
2022-08-17T10:19:37.877Z,100121.41
2022-08-17T10:22:37.978Z,100122.34
2022-08-17T10:25:37.817Z,100128.13
2022-08-17T10:28:20.994Z,100130.06
2022-08-17T10:31:10.728Z,100131.09
2022-08-17T10:34:19.154Z,100128.09
2022-08-17T10:37:06.469Z,100117.41
2022-08-17T10:40:00.533Z,100125.56
2022-08-17T10:42:33.776Z,100118.00
2022-08-17T10:45:14.937Z,100116.88
2022-08-17T10:48:31.408Z,100115.13
2022-08-17T10:51:20.500Z,100106.00
2022-08-17T10:53:49.370Z,100108.09
2022-08-17T10:56:22.465Z,100107.72
2022-08-17T10:58:58.595Z,100112.16
2022-08-17T11:01:29.473Z,100110.84
2022-08-17T11:04:01.253Z,100112.44
2022-08-17T11:06:38.024Z,100100.84
2022-08-17T11:09:21.225Z,100107.72
2022-08-17T11:11:58.739Z,100105.28
2022-08-17T11:14:47.258Z,100101.31
2022-08-17T11:17:49.792Z,100104.06
2022-08-17T11:20:21.438Z,100107.16
2022-08-17T11:22:59.772Z,100097.69
2022-08-17T11:25:41.183Z,100091.56
2022-08-17T11:28:22.062Z,100099.22
2022-08-17T11:30:55.389Z,100099.41
2022-08-17T11:33:28.997Z,100097.63
2022-08-17T11:36:11.900Z,100091.03
2022-08-17T11:39:18.409Z,100092.44
2022-08-17T11:41:56.413Z,100084.25
2022-08-17T11:44:37.721Z,100074.75
2022-08-17T11:47:36.777Z,100076.47
2022-08-17T11:50:46.102Z,100074.75
2022-08-17T11:53:38.799Z,100079.22
2022-08-17T11:56:31.728Z,100075.16
2022-08-17T11:59:01.201Z,100087.09
2022-08-17T12:01:47.131Z,100077.47
2022-08-17T12:04:26.135Z,100080.81
2022-08-17T12:07:20.586Z,100079.09
2022-08-17T12:09:53.540Z,100067.72
2022-08-17T12:12:33.113Z,100078.06
2022-08-17T12:15:10.496Z,100071.03
2022-08-17T12:17:42.632Z,100065.03
2022-08-17T12:20:39.969Z,100071.09
2022-08-17T12:23:41.688Z,100064.84
2022-08-17T12:26:15.938Z,100067.78
2022-08-17T12:28:57.405Z,100068.13
2022-08-17T12:31:34.473Z,100050.78
2022-08-17T12:34:04.465Z,100051.59
2022-08-17T12:36:33.430Z,100041.53
2022-08-17T12:39:13.066Z,100039.78
2022-08-17T12:41:46.881Z,100041.75
2022-08-17T12:44:24.200Z,100035.19
2022-08-17T12:47:04.713Z,100044.16
2022-08-17T12:49:35.656Z,100037.19
2022-08-17T12:52:17.014Z,100033.19
2022-08-17T12:54:44.362Z,100047.03
2022-08-17T12:57:43.572Z,100042.16
2022-08-17T13:00:17.436Z,100040.87
2022-08-17T13:02:49.857Z,100035.91
2022-08-17T13:05:29.953Z,100036.87
2022-08-17T13:08:00.223Z,100040.37
2022-08-17T13:10:34.669Z,100029.81
2022-08-17T13:13:05.895Z,100030.06
2022-08-17T13:15:53.036Z,100026.91
2022-08-17T13:18:38.830Z,100022.44
2022-08-17T13:21:18.069Z,100029.66
2022-08-17T13:24:19.848Z,100031.31
2022-08-17T13:27:01.049Z,100025.69
2022-08-17T13:29:53.487Z,100024.75
2022-08-17T13:32:43.729Z,100017.84
2022-08-17T13:35:45.905Z,100015.81
2022-08-17T13:38:40.526Z,100017.22
2022-08-17T13:41:28.347Z,100019.75
2022-08-17T13:43:56.021Z,100012.09
2022-08-17T13:46:31.081Z,100007.78
2022-08-17T13:49:05.590Z,100010.16
2022-08-17T13:51:46.216Z,100010.34
2022-08-17T13:54:28.156Z,100010.63
2022-08-17T13:57:06.662Z,100004.22
2022-08-17T13:59:53.596Z,100005.69
2022-08-17T14:02:22.830Z,100014.19
2022-08-17T14:04:57.049Z,100005.66
2022-08-17T14:07:32.140Z,100002.63
2022-08-17T14:10:05.275Z,100005.34
2022-08-17T14:12:34.880Z,100006.09
2022-08-17T14:15:03.873Z,100004.34
2022-08-17T14:17:35.028Z,99998.12
2022-08-17T14:20:09.819Z,100006.72
2022-08-17T14:22:41.125Z,99996.34
2022-08-17T14:25:12.594Z,99997.59
2022-08-17T14:27:43.507Z,99995.91
2022-08-17T14:30:29.961Z,99992.31
2022-08-17T14:32:58.297Z,99993.13
2022-08-17T14:35:27.942Z,100002.19
2022-08-17T14:37:56.146Z,100004.06
2022-08-17T14:40:24.796Z,99992.47
2022-08-17T14:42:55.182Z,99996.66
2022-08-17T14:45:29.881Z,99993.34
2022-08-17T14:48:04.092Z,99997.72
2022-08-17T14:50:32.069Z,99997.69
2022-08-17T14:53:05.721Z,99994.78
2022-08-17T14:55:33.597Z,99996.88
2022-08-17T14:58:01.434Z,99982.81
2022-08-17T15:00:29.704Z,99989.25
2022-08-17T15:02:58.936Z,99987.97
2022-08-17T15:05:33.441Z,99982.47
2022-08-17T15:08:02.898Z,99986.13
2022-08-17T15:10:31.593Z,99986.31
2022-08-17T15:13:00.499Z,99994.06
2022-08-17T15:15:28.763Z,99988.69
2022-08-17T15:17:57.225Z,99993.81
2022-08-17T15:20:28.295Z,99983.59
2022-08-17T15:22:58.708Z,99988.16
2022-08-17T15:25:28.889Z,99976.91
2022-08-17T15:27:56.843Z,99983.97
2022-08-17T15:30:26.606Z,99990.56
2022-08-17T15:32:55.585Z,99989.06
2022-08-17T15:35:28.315Z,99983.00
2022-08-17T15:37:58.448Z,99999.69
2022-08-17T15:40:27.030Z,99998.88
2022-08-17T15:42:54.480Z,99988.28
2022-08-17T15:45:24.867Z,99988.38
2022-08-17T15:47:53.307Z,99984.00
2022-08-17T15:50:21.111Z,99986.81
2022-08-17T15:52:56.028Z,99985.50
2022-08-17T15:55:24.664Z,99986.00
2022-08-17T15:57:52.421Z,99985.66
2022-08-17T16:00:20.584Z,99977.81
2022-08-17T16:03:46.006Z,99977.69
2022-08-17T16:05:36.125Z,99972.13
2022-08-17T16:08:04.870Z,99989.81
2022-08-17T16:10:35.187Z,99986.13
2022-08-17T16:13:04.383Z,99986.00
2022-08-17T16:15:32.271Z,99982.25
2022-08-17T16:17:59.782Z,99984.78
2022-08-17T16:20:27.630Z,99984.66
2022-08-17T16:22:55.699Z,99985.91
2022-08-17T16:25:38.311Z,99994.31
2022-08-17T16:28:17.372Z,99991.28
2022-08-17T16:30:45.502Z,99990.97
2022-08-17T16:33:13.582Z,99987.31
2022-08-17T16:35:42.095Z,99979.13
2022-08-17T16:38:10.862Z,99987.00
2022-08-17T16:40:38.447Z,99984.94
2022-08-17T16:43:10.554Z,99989.06
2022-08-17T16:45:40.488Z,99986.41
2022-08-17T16:48:09.622Z,99980.06
2022-08-17T16:50:37.573Z,99984.47
2022-08-17T16:53:10.969Z,99983.72
2022-08-17T16:55:39.108Z,99986.78
2022-08-17T16:58:06.894Z,99988.53
2022-08-17T17:00:36.138Z,99989.19
2022-08-17T17:03:18.961Z,99986.63
2022-08-17T17:06:27.853Z,99987.06
2022-08-17T17:09:00.377Z,99988.53
2022-08-17T17:11:36.977Z,99990.28
2022-08-17T17:14:14.510Z,99990.12
2022-08-17T17:16:52.475Z,99997.78
2022-08-17T17:19:41.314Z,99996.25
2022-08-17T17:22:29.492Z,99981.97
2022-08-17T17:25:13.602Z,100003.16
2022-08-17T17:28:01.502Z,99986.97
2022-08-17T17:30:44.445Z,100005.47
2022-08-17T17:33:11.795Z,100008.47
2022-08-17T17:36:13.353Z,100015.78
2022-08-17T17:38:45.144Z,100017.44
2022-08-17T17:41:25.835Z,100021.28
2022-08-17T17:44:04.748Z,100018.06
2022-08-17T17:46:37.952Z,100022.38
2022-08-17T17:49:06.230Z,100024.00
2022-08-17T17:51:54.734Z,100025.62
2022-08-17T17:54:41.389Z,100033.75
2022-08-17T17:57:18.295Z,100031.53
2022-08-17T18:00:25.107Z,100029.88
2022-08-17T18:02:58.917Z,100028.75
2022-08-17T18:05:29.833Z,100029.56
2022-08-17T18:08:32.071Z,100039.28
2022-08-17T18:11:06.326Z,100027.88
2022-08-17T18:14:04.985Z,100034.63
2022-08-17T18:16:32.983Z,100036.16
2022-08-17T18:19:01.299Z,100038.25
2022-08-17T18:21:35.409Z,100051.22
2022-08-17T18:24:06.919Z,100052.53
2022-08-17T18:26:55.271Z,100049.50
2022-08-17T18:29:32.090Z,100055.13
2022-08-17T18:32:16.845Z,100059.62
2022-08-17T18:34:48.772Z,100055.97
2022-08-17T18:37:36.263Z,100060.44
2022-08-17T18:40:16.749Z,100061.69
2022-08-17T18:42:56.240Z,100054.25
2022-08-17T18:45:38.507Z,100055.75
2022-08-17T18:48:21.932Z,100064.31
2022-08-17T18:50:53.399Z,100058.56
2022-08-17T18:53:30.159Z,100058.47
2022-08-17T18:56:20.188Z,100058.28
2022-08-17T18:59:12.514Z,100068.66
2022-08-17T19:02:09.968Z,100066.97
2022-08-17T19:04:43.112Z,100062.38
2022-08-17T19:07:24.655Z,100062.25
2022-08-17T19:09:56.161Z,100068.97
2022-08-17T19:12:50.212Z,100067.87
2022-08-17T19:15:26.946Z,100066.72
2022-08-17T19:18:03.510Z,100062.09
2022-08-17T19:20:41.666Z,100064.97
2022-08-17T19:23:33.404Z,100070.78
2022-08-17T19:26:02.478Z,100061.47
2022-08-17T19:28:44.299Z,100070.50
2022-08-17T19:31:22.089Z,100073.84
2022-08-17T19:33:50.501Z,100083.63
2022-08-17T19:36:26.181Z,100080.84
2022-08-17T19:39:06.335Z,100081.81
2022-08-17T19:41:58.857Z,100085.16
2022-08-17T19:44:47.045Z,100080.75
2022-08-17T19:47:36.263Z,100087.91
2022-08-17T19:50:16.452Z,100093.12
2022-08-17T19:52:52.757Z,100101.13
2022-08-17T19:55:57.959Z,100086.34
2022-08-17T19:58:40.722Z,100095.91
2022-08-17T20:01:19.431Z,100093.78
2022-08-17T20:04:12.957Z,100092.41
2022-08-17T20:06:43.982Z,100091.34
2022-08-17T20:09:29.593Z,100091.34
2022-08-17T20:12:16.749Z,100096.16
2022-08-17T20:14:55.597Z,100091.59
2022-08-17T20:17:32.543Z,100100.00
2022-08-17T20:20:20.703Z,100093.00
2022-08-17T20:23:01.993Z,100091.91
2022-08-17T20:25:36.559Z,100084.09
2022-08-17T20:28:21.062Z,100088.31
2022-08-17T20:30:49.153Z,100082.09
2022-08-17T20:33:36.733Z,100088.31
2022-08-17T20:36:21.019Z,100091.50
2022-08-17T20:38:53.469Z,100089.06
2022-08-17T20:41:26.852Z,100093.59
2022-08-17T20:43:57.030Z,100093.03
2022-08-17T20:46:36.749Z,100099.47
2022-08-17T20:49:22.778Z,100089.75
2022-08-17T20:52:09.958Z,100089.44
2022-08-17T20:54:54.617Z,100093.19
2022-08-17T20:57:34.044Z,100090.75
2022-08-17T21:00:16.001Z,100084.75
2022-08-17T21:02:50.324Z,100091.44
2022-08-17T21:05:57.336Z,100092.16
2022-08-17T21:08:41.361Z,100089.59
2022-08-17T21:12:02.835Z,100094.16
2022-08-17T21:14:37.322Z,100093.59
2022-08-17T21:17:17.696Z,100089.41
2022-08-17T21:20:13.057Z,100096.66
2022-08-17T21:23:09.117Z,100099.34
2022-08-17T21:26:07.041Z,100093.88
2022-08-17T21:29:29.964Z,100101.81
2022-08-17T21:32:03.331Z,100103.34
2022-08-17T21:34:33.845Z,100097.06
2022-08-17T21:37:19.899Z,100097.72
2022-08-17T21:39:56.530Z,100096.47
2022-08-17T21:42:34.428Z,100096.69
2022-08-17T21:45:09.668Z,100103.81
2022-08-17T21:47:43.571Z,100096.47
2022-08-17T21:50:21.192Z,100104.75
2022-08-17T21:52:53.896Z,100097.87
2022-08-17T21:55:30.031Z,100100.31
2022-08-17T21:58:14.148Z,100106.16
2022-08-17T22:00:44.631Z,100103.59
2022-08-17T22:03:24.073Z,100100.09
2022-08-17T22:05:51.742Z,100102.44
2022-08-17T22:08:23.946Z,100104.66
2022-08-17T22:11:01.204Z,100106.03
2022-08-17T22:13:29.696Z,100111.66
2022-08-17T22:16:03.801Z,100108.97
2022-08-17T22:18:44.833Z,100114.94
2022-08-17T22:21:12.389Z,100117.41
2022-08-17T22:24:05.713Z,100117.97
2022-08-17T22:27:03.724Z,100126.59
2022-08-17T22:29:47.245Z,100120.06
2022-08-17T22:32:41.458Z,100126.03
2022-08-17T22:35:28.562Z,100117.97
2022-08-17T22:37:57.573Z,100115.03
2022-08-17T22:40:31.200Z,100118.09
2022-08-17T22:43:03.331Z,100114.69
2022-08-17T22:45:31.247Z,100110.97
2022-08-17T22:48:02.024Z,100115.50
2022-08-17T22:50:31.570Z,100117.63
2022-08-17T22:53:45.232Z,100117.63
2022-08-17T22:56:38.780Z,100123.81
2022-08-17T22:59:22.465Z,100118.91
2022-08-17T23:02:34.943Z,100121.81
2022-08-17T23:05:10.063Z,100138.41
2022-08-17T23:07:37.546Z,100128.72
2022-08-17T23:10:06.527Z,100134.09
2022-08-17T23:12:39.935Z,100129.41
2022-08-17T23:15:15.985Z,100139.81
2022-08-17T23:17:44.530Z,100138.63
2022-08-17T23:20:15.489Z,100144.47
2022-08-17T23:22:52.460Z,100152.78
2022-08-17T23:25:33.516Z,100153.00
2022-08-17T23:28:03.313Z,100148.31
2022-08-17T23:30:34.973Z,100149.94
2022-08-17T23:33:19.459Z,100145.84
2022-08-17T23:35:47.460Z,100143.88
2022-08-17T23:38:14.954Z,100143.41
2022-08-17T23:40:42.433Z,100148.44
2022-08-17T23:43:24.308Z,100140.00
2022-08-17T23:45:59.635Z,100138.84
2022-08-17T23:48:35.325Z,100141.72
2022-08-17T23:51:09.116Z,100130.38
2022-08-17T23:53:41.986Z,100119.88
2022-08-17T23:56:11.228Z,100136.72
2022-08-17T23:58:44.907Z,100131.53
